• Join FlightAware (Why Join?)
  • Login
  • US Flag 
06:01AM EDT


 

Airport Tracker/Info


-or-


 

Live Flight TrackerFlight Track Log ✈ AWE3286 ✈ 04-Oct-2013 ✈ KCMH - KCLT

Flight Track Log - Related Links

Times and Time Zones

All times are in EDT time to prevent confusion due to time zone crossing. See the AWE3286 flight status page for this flight to view local times or setup timezone preferences in your user account.

Time Position Orientation Groundspeed Altitude Reporting Facility
EDT Latitude Longitude Course Direction KTS MPH feet Rate Location/Type
06:50AM 40.0031 -82.9211 166° South 181 208 1,500  Level Indianapolis Center
06:50AM 40.0067 -82.9517 279° West 145 167 2,700 2,040 Climbing Indianapolis Center
06:51AM 39.9975 -83.0017 257° West 206 237 4,400 2,040 Climbing Indianapolis Center
06:51AM 39.9844 -83.0081 201° Southwest 235 270 4,800 2,820 Climbing Indianapolis Center
06:52AM 39.7271 -82.7752 166° South  Level Estimated
06:52AM 39.9300 -82.9792 158° South 272 313 7,300  Level Indianapolis Center
06:53AM 39.6336 -82.7554 171° South  Level FlightAware Approximate
06:53AM 39.8611 -82.9267 150° Southeast 282 325 10,400  Level Indianapolis Center
06:54AM 39.5437 -82.7163 168° South  Level Estimated
06:54AM 39.7794 -82.8814 157° South 336 387 12,400  Level Indianapolis Center
06:55AM 39.4539 -82.6774 166° South  Level Estimated
06:55AM 39.6861 -82.8583 169° South 339 390 14,700  Level Indianapolis Center
06:56AM 39.5911 -82.8356 170° South 344 396 17,400 2,280 Climbing Indianapolis Center
06:57AM 39.4953 -82.8136 170° South 348 400 19,400 1,860 Climbing Indianapolis Center
06:58AM 39.3956 -82.7886 169° South 361 415 21,200 1,800 Climbing Indianapolis Center
06:59AM 39.2906 -82.7656 170° South 377 434 23,100 1,500 Climbing Indianapolis Center
07:00AM 39.1789 -82.7389 170° South 389 448 24,300 1,140 Climbing Indianapolis Center
07:01AM 39.0658 -82.7128 170° South 409 471 25,400 1,260 Climbing Indianapolis Center
07:02AM 38.9458 -82.6864 170° South 432 497 26,900 1,320 Climbing Indianapolis Center
07:03AM 38.8267 -82.6575 169° South 437 503 28,100 1,140 Climbing Indianapolis Center
07:04AM 38.7042 -82.6300 170° South 445 512 29,300 1,080 Climbing Indianapolis Center
07:05AM 38.5739 -82.6003 170° South 449 517 30,400 780 Climbing Indianapolis Center
07:06AM 38.4500 -82.5728 170° South 452 520 31,000 240 Climbing Indianapolis Center
07:07AM 38.3258 -82.5436 170° South 452 520 31,000  Level Indianapolis Center
07:08AM 38.1986 -82.5153 170° South 461 531 31,000  Level Indianapolis Center
07:09AM 38.0694 -82.4892 171° South 467 537 31,000  Level Indianapolis Center
07:10AM 37.9389 -82.4594 170° South 472 543 31,000  Level Indianapolis Center
07:11AM 37.8061 -82.4289 170° South 482 555 31,000  Level Indianapolis Center
07:12AM 37.6519 -82.3936 170° South 481 554 31,000  Level Indianapolis Center
07:13AM 37.5208 -82.3658 170° South 476 548 31,000  Level Indianapolis Center
07:14AM 37.3869 -82.3372 170° South 482 555 31,000  Level Indianapolis Center
07:15AM 37.2531 -82.3075 170° South 484 557 31,000 -960 Level Indianapolis Center
07:16AM 37.1189 -82.2772 170° South 485 558 29,100 -1,020 Descending Indianapolis Center
07:17AM 36.9819 -82.2483 170° South 491 565 29,000 -360 Descending Indianapolis Center
07:18AM 36.8439 -82.2181 170° South 496 571 28,400 -1,020 Descending Indianapolis Center
07:19AM 36.7064 -82.1872 170° South 498 573 27,000 -1,380 Descending Indianapolis Center
07:20AM 36.5758 -82.1597 170° South 482 555 25,600 -1,380 Descending Indianapolis Center
07:21AM 36.4481 -82.1314 170° South 465 535 24,300 -840 Descending Atlanta Center
07:22AM 36.3406 -82.0669 154° Southeast 436 502 24,000 -180 Descending Atlanta Center
07:23AM 36.2353 -82.0000 153° Southeast 426 490 24,000 -960 Level Atlanta Center
07:24AM 36.1297 -81.9256 150° Southeast 426 490 22,100 -2,100 Descending Atlanta Center
07:25AM 36.0244 -81.8617 154° Southeast 426 490 19,900 -2,100 Descending Atlanta Center
07:26AM 35.9250 -81.7925 151° Southeast 416 479 17,900 -2,160 Descending Atlanta Center
07:27AM 35.8258 -81.7336 154° Southeast 402 463 15,600 -2,280 Descending Atlanta Center
07:28AM 35.7964 -81.7114 149° Southeast 395 455 14,900 -2,040 Descending Atlanta Center
07:28AM 35.7331 -81.6725 154° Southeast 393 452 13,600 -1,980 Descending Atlanta Center
07:29AM 35.6928 -81.6481 154° Southeast 355 409 12,700 -1,800 Descending Atlanta Center
07:29AM 35.6528 -81.6183 149° Southeast 359 413 11,800 -1,680 Descending Atlanta Center
07:30AM 35.6167 -81.5939 151° Southeast 313 360 11,000 -840 Descending Atlanta Center
07:30AM 35.5847 -81.5542 135° Southeast 322 371 11,000 -120 Level Atlanta Center
07:31AM 35.5606 -81.5064 122° Southeast 306 352 10,900 -720 Descending Atlanta Center
07:31AM 35.5431 -81.4608 115° Southeast 299 344 10,300 -1,500 Descending Atlanta Center
07:32AM 35.5208 -81.4028 115° Southeast 307 353 9,400 -1,500 Descending Atlanta Center
07:32AM 35.5075 -81.3650 113° Southeast 299 344 8,800 -1,560 Descending Atlanta Center
07:33AM 35.4856 -81.3047 114° Southeast 293 337 7,700 -1,500 Descending Atlanta Center
07:33AM 35.4744 -81.2769 116° Southeast 293 337 7,300 -780 Descending Atlanta Center
07:34AM 35.4564 -81.2214 112° Southeast 280 322 7,000 -600 Descending Atlanta Center
07:34AM 35.4431 -81.1886 117° Southeast 288 331 6,700 -1,320 Descending Atlanta Center
07:35AM 35.4231 -81.1358 115° Southeast 279 321 5,700 -1,620 Descending Atlanta Center
07:35AM 35.4119 -81.1033 113° Southeast 283 326 5,100 -1,680 Descending Atlanta Center
07:36AM 35.3919 -81.0503 115° Southeast 279 321 4,000 -1,920 Descending Atlanta Center
07:36AM 35.3806 -81.0150 112° Southeast 278 320 3,200 -1,020 Descending Atlanta Center
07:37AM 35.3483 -80.9781 137° Southeast 256 295 3,000 -300 Descending Atlanta Center
07:37AM 35.3275 -80.9739 171° South 260 299 2,900 -720 Descending Atlanta Center
07:38AM 35.2983 -80.9775 186° South 142 163 2,300 -840 Descending Atlanta Center
07:39AM 35.2606 -80.9739 176° South 122 140 1,500 -840 Descending Atlanta Center